Time;durP1;ratioP1;P1;durP2;ratioP2;P2;SDS_P1;SDS_P2;PMS_P1;PMS_P2;Temp;Humidity;BMP_temperature;BMP_pressure;BME280_temperature;BME280_humidity;BME280_pressure;Samples;Min_cycle;Max_cycle;Signal;HPM_P1;HPM_P2
2022/04/02 00:01:42;;;;;;;5.65;1.42;;;3.80;72.50;;;;;;5044673;28;20041;-71
2022/04/02 00:04:09;;;;;;;4.03;1.52;;;3.80;72.30;;;;;;5046341;28;20052;-71
2022/04/02 00:06:35;;;;;;;3.65;1.80;;;3.90;72.10;;;;;;5048743;28;20065;-71
2022/04/02 00:09:01;;;;;;;4.30;1.75;;;3.80;71.90;;;;;;5046316;28;20067;-70
2022/04/02 00:11:27;;;;;;;7.10;2.25;;;3.90;71.70;;;;;;5046759;28;20055;-71
2022/04/02 00:13:52;;;;;;;6.30;1.30;;;3.80;71.60;;;;;;5048542;28;20559;-71
2022/04/02 00:16:18;;;;;;;5.13;1.80;;;3.80;71.40;;;;;;5048756;28;20041;-71
2022/04/02 00:18:44;;;;;;;3.92;1.30;;;3.80;71.20;;;;;;5049002;28;20486;-71
2022/04/02 00:21:10;;;;;;;6.32;1.85;;;3.80;71.10;;;;;;5035254;28;20066;-71
2022/04/02 00:23:35;;;;;;;5.50;2.00;;;3.80;70.90;;;;;;5046585;28;20045;-71
2022/04/02 00:26:08;;;;;;;4.22;1.70;;;3.80;70.80;;;;;;5048910;28;20847;-71
2022/04/02 00:28:36;;;;;;;2.92;1.60;;;3.80;70.60;;;;;;5040775;28;20506;-71
2022/04/02 00:31:02;;;;;;;5.78;2.83;;;3.80;70.50;;;;;;5048283;28;20049;-70
2022/04/02 00:33:28;;;;;;;4.88;2.15;;;3.80;70.40;;;;;;5047797;28;20041;-71
2022/04/02 00:35:54;;;;;;;4.28;1.58;;;3.70;70.20;;;;;;5048196;28;20044;-71
2022/04/02 00:38:19;;;;;;;6.07;1.70;;;3.70;70.10;;;;;;5048677;28;20052;-71
2022/04/02 00:40:45;;;;;;;4.28;1.42;;;3.70;70.00;;;;;;5048382;28;20072;-70
2022/04/02 00:43:52;;;;;;;2.92;1.48;;;3.70;69.90;;;;;;5048155;28;20037;-71
2022/04/02 00:46:17;;;;;;;5.80;1.55;;;3.70;69.90;;;;;;5048821;28;20066;-71
2022/04/02 00:48:43;;;;;;;3.63;1.73;;;3.60;70.00;;;;;;5046891;28;20049;-71
2022/04/02 00:51:15;;;;;;;4.45;1.35;;;3.60;69.90;;;;;;5045865;28;20401;-70
2022/04/02 00:53:45;;;;;;;5.15;1.67;;;3.70;69.90;;;;;;5044626;28;20049;-71
2022/04/02 00:56:13;;;;;;;6.35;1.63;;;3.60;69.70;;;;;;5045020;28;20604;-71
2022/04/02 00:58:39;;;;;;;5.13;1.67;;;3.60;69.60;;;;;;5044259;28;20113;-71
2022/04/02 01:01:06;;;;;;;2.97;1.23;;;3.60;69.60;;;;;;5045389;28;20612;-71
2022/04/02 01:03:32;;;;;;;5.80;1.63;;;3.50;69.70;;;;;;5045721;28;20514;-71
2022/04/02 01:05:58;;;;;;;6.55;1.30;;;3.60;69.60;;;;;;5046782;28;20052;-71
2022/04/02 01:08:24;;;;;;;9.98;2.42;;;3.50;69.50;;;;;;5047031;28;20053;-71
2022/04/02 01:10:49;;;;;;;6.75;1.40;;;3.50;69.50;;;;;;5047222;28;20045;-72
2022/04/02 01:13:16;;;;;;;4.47;1.83;;;3.50;69.40;;;;;;5046419;28;20120;-71
2022/04/02 01:15:42;;;;;;;3.45;1.60;;;3.40;69.30;;;;;;5047307;28;20087;-71
2022/04/02 01:18:07;;;;;;;6.63;1.67;;;3.40;69.30;;;;;;5047249;28;20490;-71
2022/04/02 01:20:34;;;;;;;7.30;1.65;;;3.30;69.20;;;;;;5046759;28;20041;-71
2022/04/02 01:23:00;;;;;;;4.70;2.05;;;3.30;69.20;;;;;;5046140;28;20556;-70
2022/04/02 01:25:32;;;;;;;7.07;1.65;;;3.20;69.10;;;;;;5047183;28;20056;-71
2022/04/02 01:27:59;;;;;;;2.55;1.60;;;3.30;69.10;;;;;;5046476;28;20053;-71
2022/04/02 01:30:25;;;;;;;3.35;1.63;;;3.20;68.90;;;;;;5046813;28;20041;-71
2022/04/02 01:32:51;;;;;;;7.88;1.50;;;3.10;68.80;;;;;;5047782;28;20158;-71
2022/04/02 01:35:19;;;;;;;2.67;1.23;;;3.10;68.70;;;;;;5050399;28;20087;-71
2022/04/02 01:37:45;;;;;;;5.15;1.65;;;3.00;68.60;;;;;;5050661;28;20116;-71
2022/04/02 01:40:11;;;;;;;3.60;1.52;;;3.00;68.20;;;;;;5050759;28;20148;-71
2022/04/02 01:42:36;;;;;;;3.08;1.52;;;3.00;67.90;;;;;;5049665;28;20044;-72
2022/04/02 01:45:03;;;;;;;5.07;1.52;;;2.90;67.80;;;;;;5050071;28;20037;-70
2022/04/02 01:47:29;;;;;;;6.43;1.38;;;2.90;67.60;;;;;;5050246;28;20044;-71
2022/04/02 01:49:55;;;;;;;5.30;1.30;;;2.90;67.20;;;;;;5050402;28;20133;-71
2022/04/02 01:52:21;;;;;;;2.95;1.88;;;2.90;67.10;;;;;;5050394;28;20034;-71
2022/04/02 01:54:47;;;;;;;3.67;1.70;;;2.90;66.90;;;;;;5049560;28;20037;-71
2022/04/02 01:57:14;;;;;;;4.72;1.42;;;2.90;66.80;;;;;;5050063;28;20052;-71
2022/04/02 01:59:40;;;;;;;4.78;1.23;;;2.90;66.90;;;;;;5048089;28;20047;-72
2022/04/02 02:02:07;;;;;;;4.68;1.75;;;2.90;66.90;;;;;;5050186;28;20044;-72
2022/04/02 02:04:33;;;;;;;8.73;1.83;;;2.90;66.80;;;;;;5050199;28;20033;-71
2022/04/02 02:07:03;;;;;;;4.25;1.30;;;2.90;66.90;;;;;;5049092;28;20041;-71
2022/04/02 02:09:28;;;;;;;8.02;2.72;;;2.90;67.00;;;;;;5050021;28;20528;-71
2022/04/02 02:11:54;;;;;;;3.72;1.40;;;2.90;67.00;;;;;;5050444;28;20045;-71
2022/04/02 02:14:20;;;;;;;3.50;1.17;;;2.80;67.00;;;;;;5050246;28;20029;-71
2022/04/02 02:16:46;;;;;;;4.72;1.50;;;2.90;67.10;;;;;;5049719;28;20793;-71
2022/04/02 02:19:11;;;;;;;3.63;1.58;;;2.90;66.90;;;;;;5049428;28;20041;-71
2022/04/02 02:21:37;;;;;;;6.47;1.40;;;2.90;67.00;;;;;;5049912;28;20091;-71
2022/04/02 02:24:04;;;;;;;3.80;1.50;;;2.90;67.00;;;;;;5049924;28;20037;-71
2022/04/02 02:26:29;;;;;;;4.28;1.58;;;2.80;67.00;;;;;;5049567;28;20041;-71
2022/04/02 02:28:55;;;;;;;3.53;1.50;;;2.80;67.10;;;;;;5049069;28;20048;-71
2022/04/02 02:31:21;;;;;;;9.68;2.45;;;2.80;67.00;;;;;;5048611;28;20052;-71
2022/04/02 02:36:30;;;;;;;5.75;1.60;;;2.70;67.10;;;;;;5048542;28;20414;-72
2022/04/02 02:38:56;;;;;;;6.95;1.48;;;2.70;67.20;;;;;;5049336;28;20044;-71
2022/04/02 02:41:22;;;;;;;3.78;1.33;;;2.70;67.10;;;;;;5049085;28;20115;-71
2022/04/02 02:43:48;;;;;;;3.47;1.15;;;2.70;67.20;;;;;;5048386;28;20457;-71
2022/04/02 02:46:17;;;;;;;7.63;1.67;;;2.70;67.20;;;;;;5049408;28;20584;-71
2022/04/02 02:48:43;;;;;;;5.10;1.58;;;2.70;67.20;;;;;;5047114;28;20152;-70
2022/04/02 02:51:09;;;;;;;8.82;1.23;;;2.60;67.10;;;;;;5049059;28;20404;-71
2022/04/02 02:53:35;;;;;;;9.43;1.48;;;2.60;67.10;;;;;;5049195;28;20033;-71
2022/04/02 02:56:01;;;;;;;4.90;1.80;;;2.60;67.10;;;;;;5048945;28;20048;-71
2022/04/02 02:58:26;;;;;;;3.58;1.50;;;2.60;67.10;;;;;;5049430;28;20053;-71
2022/04/02 03:00:52;;;;;;;4.05;1.48;;;2.60;67.10;;;;;;5048060;28;20051;-71
2022/04/02 03:03:18;;;;;;;4.85;1.52;;;2.60;67.00;;;;;;5048245;28;20056;-70
2022/04/02 03:05:44;;;;;;;3.38;1.38;;;2.60;67.10;;;;;;5048547;28;20043;-70
2022/04/02 03:08:09;;;;;;;2.50;1.20;;;2.50;67.10;;;;;;5049022;28;20048;-71
2022/04/02 03:10:36;;;;;;;6.15;1.27;;;2.50;67.10;;;;;;5049073;28;20512;-71
2022/04/02 03:13:02;;;;;;;4.30;1.42;;;2.50;67.20;;;;;;5048449;28;20044;-71
2022/04/02 03:15:28;;;;;;;4.60;1.30;;;2.40;67.20;;;;;;5048862;28;20417;-71
2022/04/02 03:17:54;;;;;;;3.33;1.50;;;2.40;67.10;;;;;;5048378;28;20052;-72
2022/04/02 03:20:22;;;;;;;3.13;1.27;;;2.40;67.20;;;;;;5048605;28;20041;-71
2022/04/02 03:22:49;;;;;;;3.47;1.13;;;2.30;67.20;;;;;;5048170;28;20036;-71
2022/04/02 03:25:16;;;;;;;5.93;1.33;;;2.30;67.20;;;;;;5048278;28;20040;-71
2022/04/02 03:27:43;;;;;;;8.63;1.52;;;2.30;67.30;;;;;;5046358;28;20052;-71
2022/04/02 03:30:10;;;;;;;5.90;1.45;;;2.30;67.30;;;;;;5047880;28;20049;-71
2022/04/02 03:32:37;;;;;;;5.65;2.30;;;2.20;67.20;;;;;;5047309;28;20041;-71
2022/04/02 03:35:04;;;;;;;4.53;1.60;;;2.20;67.20;;;;;;5047197;28;20045;-71
2022/04/02 03:37:31;;;;;;;4.68;1.05;;;2.20;67.30;;;;;;5048026;28;20041;-71
2022/04/02 03:39:57;;;;;;;7.25;1.13;;;2.20;67.40;;;;;;5047607;28;20049;-71
2022/04/02 03:42:23;;;;;;;4.68;1.00;;;2.20;67.40;;;;;;5047750;28;20175;-71
2022/04/02 03:44:49;;;;;;;3.13;1.30;;;2.20;67.30;;;;;;5047818;28;20127;-71
2022/04/02 03:47:15;;;;;;;5.65;1.58;;;2.20;67.30;;;;;;5047682;28;20051;-71
2022/04/02 03:49:46;;;;;;;5.00;1.23;;;2.20;67.30;;;;;;5045249;28;20551;-71
2022/04/02 03:52:13;;;;;;;2.97;1.30;;;2.10;67.30;;;;;;5045823;28;20122;-71
2022/04/02 03:54:39;;;;;;;3.03;1.20;;;2.10;67.30;;;;;;5047501;28;20041;-71
2022/04/02 03:57:06;;;;;;;4.25;1.13;;;2.10;67.20;;;;;;5047178;28;20124;-72
2022/04/02 03:59:33;;;;;;;6.20;1.13;;;2.20;67.10;;;;;;5048267;28;20059;-71
2022/04/02 04:01:59;;;;;;;2.03;0.90;;;2.10;67.20;;;;;;5047068;28;20532;-71
2022/04/02 04:04:26;;;;;;;6.13;1.20;;;2.10;67.10;;;;;;5047687;28;20041;-71
2022/04/02 04:06:52;;;;;;;4.55;1.30;;;2.10;67.10;;;;;;5047905;28;20045;-71
2022/04/02 04:09:19;;;;;;;4.35;1.52;;;2.10;67.10;;;;;;5048521;28;20387;-71
2022/04/02 04:11:44;;;;;;;5.43;1.23;;;2.10;67.10;;;;;;5048649;28;20398;-71
2022/04/02 04:14:10;;;;;;;2.75;1.20;;;2.10;67.00;;;;;;5048429;28;20098;-71
2022/04/02 04:16:36;;;;;;;3.67;1.33;;;2.10;67.00;;;;;;5047936;28;20049;-71
2022/04/02 04:19:02;;;;;;;2.25;1.02;;;2.10;67.00;;;;;;5047632;28;20048;-71
2022/04/02 04:21:28;;;;;;;4.22;0.93;;;2.10;67.10;;;;;;5048206;28;20037;-71
2022/04/02 04:23:54;;;;;;;3.20;0.90;;;2.10;67.00;;;;;;5047726;28;20041;-71
2022/04/02 04:26:20;;;;;;;4.38;0.90;;;2.00;67.10;;;;;;5040037;28;20116;-71
2022/04/02 04:28:46;;;;;;;5.15;1.23;;;2.00;67.00;;;;;;5047741;28;20075;-71
2022/04/02 04:31:17;;;;;;;3.85;1.27;;;2.00;67.00;;;;;;5047695;28;20037;-71
2022/04/02 04:33:46;;;;;;;7.27;1.20;;;2.00;67.00;;;;;;5048270;28;20041;-72
2022/04/02 04:36:12;;;;;;;5.95;1.30;;;2.00;67.10;;;;;;5048700;28;20158;-72
2022/04/02 04:38:38;;;;;;;4.07;1.15;;;2.00;67.10;;;;;;5047537;28;20474;-72
2022/04/02 04:41:04;;;;;;;4.53;0.90;;;2.00;67.10;;;;;;5051203;28;20036;-72
2022/04/02 04:43:30;;;;;;;3.95;1.00;;;2.00;67.10;;;;;;5054743;28;20412;-72
2022/04/02 04:45:57;;;;;;;9.07;1.85;;;2.00;67.00;;;;;;5047692;28;20033;-72
2022/04/02 04:48:23;;;;;;;2.30;0.80;;;2.00;67.00;;;;;;5030254;28;20056;-71
2022/04/02 04:50:49;;;;;;;6.85;1.30;;;2.00;66.90;;;;;;5047920;28;20077;-71
2022/04/02 04:53:14;;;;;;;6.15;1.15;;;1.90;67.00;;;;;;5047720;28;20560;-70
2022/04/02 04:55:40;;;;;;;6.05;1.00;;;2.00;67.00;;;;;;5048107;28;20102;-71
2022/04/02 04:58:06;;;;;;;3.10;1.02;;;2.00;66.90;;;;;;5048356;28;20052;-72
2022/04/02 05:00:33;;;;;;;3.33;1.10;;;2.00;66.70;;;;;;5044001;28;20122;-71
2022/04/02 05:02:59;;;;;;;5.15;0.93;;;2.00;66.70;;;;;;5046552;28;20056;-71
2022/04/02 05:05:27;;;;;;;4.28;1.08;;;2.00;66.80;;;;;;5048073;28;20531;-70
2022/04/02 05:07:53;;;;;;;2.60;0.70;;;2.00;66.40;;;;;;5048641;28;20087;-70
2022/04/02 05:10:19;;;;;;;2.50;0.55;;;1.90;66.50;;;;;;5050396;28;20045;-70
2022/04/02 05:12:44;;;;;;;6.45;1.50;;;2.00;66.60;;;;;;5049241;28;20045;-71
2022/04/02 05:15:10;;;;;;;2.38;0.90;;;2.00;66.70;;;;;;5050365;28;20374;-72
2022/04/02 05:17:37;;;;;;;3.78;0.90;;;1.90;66.90;;;;;;5046160;28;20072;-71
2022/04/02 05:20:04;;;;;;;7.55;1.02;;;1.90;67.00;;;;;;5036906;28;20132;-72
2022/04/02 05:22:29;;;;;;;3.75;1.00;;;1.90;67.10;;;;;;5039195;28;20053;-72
2022/04/02 05:24:55;;;;;;;3.58;1.20;;;1.90;67.20;;;;;;5033228;28;20040;-72
2022/04/02 05:27:21;;;;;;;4.43;0.77;;;1.90;67.10;;;;;;5038456;28;20444;-72
2022/04/02 05:29:47;;;;;;;3.45;1.10;;;1.90;67.10;;;;;;5038229;28;20441;-73
2022/04/02 05:32:12;;;;;;;3.30;1.10;;;1.90;67.10;;;;;;5034165;28;20414;-72
2022/04/02 05:34:38;;;;;;;5.45;1.40;;;2.00;67.00;;;;;;5032366;28;20037;-69
2022/04/02 05:37:04;;;;;;;4.32;2.38;;;2.00;67.10;;;;;;5041561;28;20067;-69
2022/04/02 05:39:30;;;;;;;2.28;0.90;;;2.00;67.10;;;;;;5041335;28;20041;-70
2022/04/02 05:41:57;;;;;;;6.18;1.00;;;2.00;67.00;;;;;;5037919;28;20061;-72
2022/04/02 05:44:23;;;;;;;2.13;0.77;;;2.00;67.00;;;;;;5040147;28;20088;-74
2022/04/02 05:46:49;;;;;;;3.45;1.00;;;2.10;66.90;;;;;;5034264;28;20041;-73
2022/04/02 05:49:15;;;;;;;3.38;0.95;;;2.10;66.90;;;;;;5034149;28;20052;-73
2022/04/02 05:51:40;;;;;;;2.15;0.82;;;2.10;66.70;;;;;;5035184;28;20042;-74
2022/04/02 05:54:06;;;;;;;6.82;1.10;;;2.10;66.60;;;;;;5035376;28;20060;-74
2022/04/02 05:56:34;;;;;;;3.13;0.88;;;2.20;66.40;;;;;;5032093;28;20128;-73
2022/04/02 05:59:00;;;;;;;6.57;0.90;;;2.20;66.30;;;;;;5034687;28;20060;-73
2022/04/02 06:01:26;;;;;;;3.42;1.00;;;2.20;66.40;;;;;;5048623;28;20450;-72
2022/04/02 06:03:52;;;;;;;2.40;0.95;;;2.20;66.30;;;;;;5049368;28;20409;-73
2022/04/02 06:06:18;;;;;;;3.53;1.17;;;2.20;66.30;;;;;;5050066;28;20498;-72
2022/04/02 06:08:44;;;;;;;9.00;1.30;;;2.20;66.50;;;;;;5049243;28;20057;-75
2022/04/02 06:11:09;;;;;;;2.95;1.10;;;2.20;66.60;;;;;;5049055;28;20052;-74
2022/04/02 06:13:35;;;;;;;4.55;1.20;;;2.20;66.70;;;;;;5046165;28;20049;-75
2022/04/02 06:16:01;;;;;;;5.50;1.55;;;2.20;66.50;;;;;;5027867;28;20049;-74
2022/04/02 06:18:26;;;;;;;5.65;1.23;;;2.30;66.40;;;;;;5029963;28;20527;-75
2022/04/02 06:20:52;;;;;;;6.05;1.00;;;2.30;66.30;;;;;;5030842;28;20153;-75
2022/04/02 06:23:18;;;;;;;5.07;1.30;;;2.40;66.30;;;;;;5050875;28;20060;-74
2022/04/02 06:25:44;;;;;;;3.88;1.15;;;2.40;66.10;;;;;;5051131;28;20070;-74
2022/04/02 06:28:10;;;;;;;8.20;1.67;;;2.50;66.10;;;;;;5051272;28;20488;-74
2022/04/02 06:30:36;;;;;;;4.00;1.23;;;2.50;66.30;;;;;;5049929;28;20037;-75
2022/04/02 06:33:02;;;;;;;3.22;1.42;;;2.50;66.40;;;;;;5051015;28;20049;-74
2022/04/02 06:35:28;;;;;;;3.22;1.40;;;2.60;66.40;;;;;;5050339;28;20049;-74
2022/04/02 06:37:55;;;;;;;19.05;4.75;;;2.60;66.30;;;;;;5050887;28;20053;-74
2022/04/02 06:40:22;;;;;;;2.15;1.00;;;2.70;66.20;;;;;;5050805;28;20485;-74
2022/04/02 06:42:48;;;;;;;2.38;1.30;;;2.70;66.30;;;;;;5050470;28;20568;-74
2022/04/02 06:45:15;;;;;;;1.77;1.08;;;2.70;66.20;;;;;;5050602;28;20052;-74
2022/04/02 06:47:41;;;;;;;3.20;1.38;;;2.70;66.40;;;;;;5050516;28;20041;-74
2022/04/02 06:50:11;;;;;;;5.32;1.45;;;2.70;66.70;;;;;;5050922;28;20479;-74
2022/04/02 06:52:38;;;;;;;4.20;1.15;;;2.80;66.70;;;;;;5050130;28;20123;-73
2022/04/02 06:55:04;;;;;;;2.83;1.35;;;2.80;66.50;;;;;;5050318;28;20489;-74
2022/04/02 06:57:30;;;;;;;3.75;1.27;;;2.80;66.40;;;;;;5050527;28;20048;-74
2022/04/02 06:59:56;;;;;;;4.65;1.20;;;2.90;66.10;;;;;;5050287;28;20033;-74
2022/04/02 07:02:22;;;;;;;7.18;1.55;;;2.90;66.10;;;;;;5065815;28;20408;-74
2022/04/02 07:04:48;;;;;;;2.55;1.05;;;2.90;65.90;;;;;;5069118;28;20098;-74
2022/04/02 07:07:14;;;;;;;5.68;1.20;;;3.00;65.80;;;;;;5049055;28;20063;-74
2022/04/02 07:09:40;;;;;;;2.67;1.23;;;3.00;65.80;;;;;;5049604;28;20053;-73
2022/04/02 07:12:07;;;;;;;2.50;1.33;;;3.00;65.80;;;;;;5049900;28;20045;-74
2022/04/02 07:14:33;;;;;;;4.72;1.38;;;3.00;65.90;;;;;;5050066;28;20044;-74
2022/04/02 07:16:59;;;;;;;3.13;1.25;;;3.00;66.00;;;;;;5049696;28;20049;-73
2022/04/02 07:19:25;;;;;;;4.72;1.75;;;3.10;65.80;;;;;;5046823;28;20041;-74
2022/04/02 07:21:54;;;;;;;2.70;1.52;;;3.10;65.60;;;;;;5049810;28;20037;-74
2022/04/02 07:24:21;;;;;;;9.20;1.25;;;3.20;65.30;;;;;;5048886;28;20493;-74
2022/04/02 07:26:48;;;;;;;6.00;1.58;;;3.20;65.10;;;;;;5049073;28;20136;-74
2022/04/02 07:29:15;;;;;;;2.45;1.08;;;3.20;65.00;;;;;;5049758;28;20402;-73
2022/04/02 07:31:44;;;;;;;5.35;1.30;;;3.40;64.90;;;;;;5048451;28;20047;-74
2022/04/02 07:34:10;;;;;;;2.72;1.63;;;3.40;64.50;;;;;;5047820;28;20033;-74
2022/04/02 07:36:55;;;;;;;4.25;1.60;;;3.30;64.80;;;;;;5048620;28;20820;-72
2022/04/02 07:39:32;;;;;;;4.65;1.42;;;3.30;64.60;;;;;;5049332;28;20045;-74
2022/04/02 07:42:46;;;;;;;7.20;1.40;;;3.80;67.80;;;;;;5048341;28;20045;-74
2022/04/02 07:45:13;;;;;;;6.03;1.70;;;3.90;64.80;;;;;;5047035;28;20742;-75
2022/04/02 07:47:42;;;;;;;5.40;2.25;;;3.90;64.40;;;;;;5029715;28;20064;-75
2022/04/02 07:50:09;;;;;;;3.20;1.50;;;3.80;64.00;;;;;;5047340;28;20110;-75
2022/04/02 07:52:37;;;;;;;2.60;1.48;;;3.80;64.00;;;;;;5046805;28;20045;-73
2022/04/02 07:55:06;;;;;;;4.45;1.60;;;3.80;64.20;;;;;;5031443;28;20186;-73
2022/04/02 07:57:43;;;;;;;5.35;1.48;;;3.90;64.10;;;;;;5048709;28;20457;-73
2022/04/02 08:00:11;;;;;;;2.78;1.05;;;4.10;63.60;;;;;;5047616;28;20053;-72
2022/04/02 08:02:40;;;;;;;4.07;1.13;;;4.10;63.20;;;;;;5031130;28;20382;-73
2022/04/02 08:05:11;;;;;;;4.32;1.48;;;4.10;63.40;;;;;;5048155;28;20529;-71
2022/04/02 08:07:38;;;;;;;5.50;1.25;;;4.20;63.00;;;;;;5046744;28;20053;-71
2022/04/02 08:10:08;;;;;;;2.55;0.95;;;4.20;62.80;;;;;;5049284;28;20147;-73
2022/04/02 08:12:38;;;;;;;2.40;1.08;;;4.40;62.60;;;;;;5041599;28;20454;-73
2022/04/02 08:15:07;;;;;;;391.80;128.32;;;4.50;61.20;;;;;;5049100;28;20041;-72
2022/04/02 08:17:33;;;;;;;7.80;2.80;;;4.60;60.80;;;;;;5048442;28;20049;-72
2022/04/02 08:20:01;;;;;;;3.13;1.42;;;4.70;60.10;;;;;;5048755;28;20135;-73
2022/04/02 08:22:27;;;;;;;2.40;0.90;;;4.70;59.20;;;;;;5049222;28;20140;-72
2022/04/02 08:24:54;;;;;;;3.50;1.00;;;4.70;59.00;;;;;;5047838;28;20136;-72
2022/04/02 08:27:35;;;;;;;4.35;1.45;;;4.80;59.60;;;;;;5048369;28;20037;-74
2022/04/02 08:30:13;;;;;;;4.50;1.40;;;4.90;58.70;;;;;;5048880;28;20411;-73
2022/04/02 08:32:57;;;;;;;5.55;1.25;;;5.00;58.30;;;;;;5047222;28;20329;-71
2022/04/02 08:35:49;;;;;;;3.30;1.10;;;5.00;57.10;;;;;;5048614;28;20060;-71
2022/04/02 08:38:29;;;;;;;8.52;0.75;;;4.90;56.80;;;;;;5046250;28;20173;-72
2022/04/02 08:41:29;;;;;;;2.42;0.88;;;4.90;57.60;;;;;;5044474;28;20059;-72
2022/04/02 08:44:00;;;;;;;8.48;1.73;;;4.90;56.50;;;;;;5046556;28;20072;-71
2022/04/02 08:46:40;;;;;;;4.32;1.00;;;5.60;67.90;;;;;;5047068;28;20171;-71
2022/04/02 08:49:28;;;;;;;4.13;1.70;;;5.80;61.80;;;;;;5038977;28;20041;-71
2022/04/02 08:52:14;;;;;;;2.90;1.48;;;5.80;61.50;;;;;;5048324;28;20091;-71
2022/04/02 08:55:10;;;;;;;3.88;2.08;;;5.80;61.90;;;;;;5045459;28;20048;-71
2022/04/02 08:57:42;;;;;;;6.30;2.80;;;5.70;62.70;;;;;;5044394;28;20049;-71
2022/04/02 09:00:13;;;;;;;4.35;1.60;;;5.70;63.10;;;;;;5048585;28;20122;-71
2022/04/02 09:02:53;;;;;;;5.20;1.30;;;5.60;63.20;;;;;;5047734;28;20549;-72
2022/04/02 09:05:53;;;;;;;5.05;1.10;;;5.60;63.20;;;;;;5040235;28;20052;-71
2022/04/02 09:08:38;;;;;;;3.72;1.30;;;5.70;63.00;;;;;;5043144;28;20127;-71
2022/04/02 09:11:20;;;;;;;5.10;1.75;;;5.80;63.30;;;;;;5044447;28;20078;-70
2022/04/02 09:14:12;;;;;;;6.65;2.53;;;5.80;62.90;;;;;;5039941;28;20037;-70
2022/04/02 09:17:02;;;;;;;9.50;2.57;;;6.10;61.30;;;;;;5043334;28;20049;-70
2022/04/02 09:19:40;;;;;;;5.53;1.40;;;6.10;58.70;;;;;;5047869;28;20397;-69
2022/04/02 09:22:15;;;;;;;3.95;1.40;;;6.10;58.50;;;;;;5051491;28;20052;-70
2022/04/02 09:25:23;;;;;;;8.32;1.30;;;6.10;59.40;;;;;;5047099;28;20045;-70
2022/04/02 09:28:34;;;;;;;3.05;0.88;;;6.30;57.00;;;;;;5049093;28;20063;-69
2022/04/02 09:31:18;;;;;;;3.28;1.27;;;6.10;57.40;;;;;;5043899;28;20472;-68
2022/04/02 09:34:21;;;;;;;5.72;1.02;;;6.30;56.30;;;;;;5044442;28;20044;-69
2022/04/02 09:36:59;;;;;;;3.45;0.60;;;6.40;55.00;;;;;;5043368;28;20055;-69
2022/04/02 09:40:05;;;;;;;4.30;0.65;;;6.40;53.90;;;;;;5049521;28;20517;-69
2022/04/02 09:42:46;;;;;;;2.22;0.68;;;6.40;51.60;;;;;;5043560;28;20051;-70
2022/04/02 09:45:18;;;;;;;5.68;0.80;;;6.30;53.20;;;;;;5033908;28;20045;-70
2022/04/02 09:47:50;;;;;;;;;;;6.40;52.90;;;;;;5047156;28;20040;-71
2022/04/02 09:50:17;;;;;;;1.57;0.60;;;6.30;52.00;;;;;;5052197;28;19928;-69
2022/04/02 09:53:32;;;;;;;4.13;0.80;;;6.30;52.40;;;;;;5051496;28;20311;-69
2022/04/02 09:56:24;;;;;;;5.05;0.70;;;6.40;50.80;;;;;;5061331;28;20060;-71
2022/04/02 09:58:59;;;;;;;3.97;0.70;;;6.50;50.10;;;;;;5052333;28;20048;-70
2022/04/02 10:01:27;;;;;;;3.53;0.80;;;6.60;49.70;;;;;;5052626;28;20135;-70
2022/04/02 10:04:17;;;;;;;4.22;0.70;;;6.50;48.40;;;;;;5053891;28;20048;-70
2022/04/02 10:06:49;;;;;;;1.40;0.65;;;6.40;49.40;;;;;;5046237;28;20103;-70
2022/04/02 10:09:18;;;;;;;2.92;0.77;;;6.10;50.70;;;;;;5059158;28;20044;-71
2022/04/02 10:12:01;;;;;;;5.47;0.75;;;6.20;50.90;;;;;;5037932;28;20051;-70
2022/04/02 10:14:33;;;;;;;4.63;1.10;;;6.10;50.60;;;;;;5048837;28;20110;-70
2022/04/02 10:17:04;;;;;;;3.00;1.00;;;6.00;50.20;;;;;;5065859;28;20059;-71
2022/04/02 10:19:39;;;;;;;1.58;0.77;;;6.00;50.20;;;;;;5051868;28;20420;-69
2022/04/02 10:22:08;;;;;;;5.75;1.10;;;6.00;50.00;;;;;;5050963;28;20037;-70
2022/04/02 10:24:59;;;;;;;2.90;1.85;;;6.00;50.40;;;;;;5049370;28;20128;-71
2022/04/02 10:27:34;;;;;;;4.10;1.70;;;6.10;50.50;;;;;;5032401;28;20049;-70
2022/04/02 10:30:00;;;;;;;4.38;0.90;;;6.20;50.20;;;;;;5031765;28;20094;-71
2022/04/02 10:32:55;;;;;;;3.95;0.95;;;6.20;49.00;;;;;;5047173;28;20041;-70
2022/04/02 10:35:25;;;;;;;3.35;0.77;;;6.20;48.90;;;;;;5050604;28;20045;-70
2022/04/02 10:37:57;;;;;;;7.13;1.00;;;6.20;49.70;;;;;;5050964;28;20053;-74
2022/04/02 10:40:28;;;;;;;4.13;1.05;;;6.30;48.20;;;;;;5052156;28;20106;-72
2022/04/02 10:42:59;;;;;;;2.08;0.60;;;6.30;49.20;;;;;;5051253;28;20037;-70
2022/04/02 10:45:28;;;;;;;6.60;0.80;;;6.40;48.30;;;;;;5051810;28;20390;-70
2022/04/02 10:48:05;;;;;;;2.92;0.93;;;6.50;47.70;;;;;;5051611;28;20445;-71
2022/04/02 10:50:32;;;;;;;1.80;0.75;;;6.40;48.10;;;;;;5051313;28;20127;-70
2022/04/02 10:53:01;;;;;;;4.88;0.70;;;6.30;49.00;;;;;;5054447;28;20482;-69
2022/04/02 10:55:28;;;;;;;4.65;0.77;;;6.20;49.30;;;;;;5062250;28;20132;-69
2022/04/02 10:57:55;;;;;;;1.52;0.60;;;6.20;49.90;;;;;;5071078;28;20033;-69
2022/04/02 11:00:21;;;;;;;1.73;0.60;;;6.10;50.30;;;;;;5052935;28;20053;-70
2022/04/02 11:02:49;;;;;;;3.47;0.70;;;6.20;50.30;;;;;;5051086;28;20068;-69
2022/04/02 11:05:17;;;;;;;4.18;1.08;;;6.30;50.40;;;;;;5063028;28;20412;-72
2022/04/02 11:07:49;;;;;;;3.83;0.70;;;6.30;51.30;;;;;;5054879;28;20049;-69
2022/04/02 11:10:17;;;;;;;3.90;0.68;;;6.30;51.40;;;;;;5053885;28;20036;-70
2022/04/02 11:12:44;;;;;;;2.78;0.85;;;6.20;51.80;;;;;;5049526;28;20095;-69
2022/04/02 11:15:21;;;;;;;11.18;3.03;;;6.20;50.70;;;;;;5051167;28;20103;-69
2022/04/02 11:17:48;;;;;;;2.03;0.70;;;6.20;51.50;;;;;;5051138;28;20064;-70
2022/04/02 11:20:22;;;;;;;2.78;0.65;;;6.20;51.30;;;;;;5050273;28;20096;-69
2022/04/02 11:22:57;;;;;;;3.63;1.08;;;6.50;50.20;;;;;;5050478;28;20037;-68
2022/04/02 11:25:29;;;;;;;4.95;0.80;;;6.60;50.80;;;;;;5049351;28;20049;-69
2022/04/02 11:28:15;;;;;;;2.28;0.80;;;6.80;47.80;;;;;;5049735;28;20080;-69
2022/04/02 11:30:51;;;;;;;4.40;0.68;;;6.80;44.80;;;;;;5044498;28;20053;-68
2022/04/02 11:33:18;;;;;;;4.32;0.98;;;6.60;45.50;;;;;;5040817;28;20041;-69
2022/04/02 11:35:48;;;;;;;3.22;0.70;;;6.60;46.30;;;;;;5049822;28;20047;-68
2022/04/02 11:38:23;;;;;;;7.07;0.88;;;6.50;47.00;;;;;;5048453;28;20123;-70
2022/04/02 11:41:11;;;;;;;4.53;0.93;;;6.60;47.30;;;;;;5049511;28;20045;-69
2022/04/02 11:43:43;;;;;;;6.18;0.80;;;6.40;49.20;;;;;;5047199;28;20124;-69
2022/04/02 11:46:16;;;;;;;2.95;0.70;;;6.60;51.80;;;;;;5048720;28;20048;-71
2022/04/02 11:48:59;;;;;;;4.40;1.10;;;6.70;50.40;;;;;;5048719;28;20040;-70
2022/04/02 11:51:29;;;;;;;3.03;0.80;;;6.80;49.80;;;;;;5049197;28;20075;-70
2022/04/02 11:54:04;;;;;;;3.25;0.70;;;6.90;49.40;;;;;;5044071;28;20109;-70
2022/04/02 11:56:31;;;;;;;4.30;0.70;;;6.90;50.00;;;;;;5049456;28;20118;-69
2022/04/02 11:58:59;;;;;;;6.30;1.20;;;7.00;49.60;;;;;;5030231;28;20044;-70
2022/04/02 12:01:27;;;;;;;4.50;0.85;;;7.10;48.80;;;;;;5044977;28;20045;-69
2022/04/02 12:04:13;;;;;;;3.67;0.73;;;7.10;48.60;;;;;;5048646;28;20049;-69
2022/04/02 12:06:41;;;;;;;3.65;0.80;;;7.20;47.60;;;;;;5048630;28;20505;-69
2022/04/02 12:09:20;;;;;;;2.15;0.73;;;7.30;48.00;;;;;;5039912;28;20049;-69
2022/04/02 12:12:00;;;;;;;2.58;0.90;;;7.40;47.60;;;;;;5048197;28;20512;-69
2022/04/02 12:14:29;;;;;;;7.22;0.77;;;7.60;46.70;;;;;;5048967;28;20041;-69
2022/04/02 12:17:03;;;;;;;2.58;0.55;;;7.40;46.20;;;;;;5048198;28;20095;-69
2022/04/02 12:19:34;;;;;;;5.18;1.08;;;7.40;46.10;;;;;;5048936;28;20063;-69
2022/04/02 12:22:01;;;;;;;2.92;0.65;;;7.40;46.10;;;;;;5048503;28;20102;-69
2022/04/02 12:24:37;;;;;;;5.95;0.65;;;7.20;46.30;;;;;;5047452;28;20497;-69
2022/04/02 12:27:06;;;;;;;1.70;0.40;;;7.10;46.60;;;;;;5039492;28;20032;-69
2022/04/02 12:29:33;;;;;;;7.43;1.15;;;7.00;46.90;;;;;;5046298;28;20048;-69
2022/04/02 12:32:00;;;;;;;4.55;0.73;;;6.90;46.80;;;;;;5047018;28;20041;-69
2022/04/02 12:34:28;;;;;;;3.40;0.75;;;6.80;47.40;;;;;;5053223;28;20041;-69
2022/04/02 12:37:03;;;;;;;3.60;0.80;;;6.80;46.60;;;;;;5052530;28;20489;-70
2022/04/02 12:39:28;;;;;;;3.10;0.40;;;6.80;45.30;;;;;;5067139;28;20048;-70
2022/04/02 12:41:54;;;;;;;1.38;0.57;;;6.80;44.40;;;;;;5057703;28;20067;-71
2022/04/02 12:44:21;;;;;;;4.32;1.05;;;7.00;43.90;;;;;;5044532;28;20041;-72
2022/04/02 12:46:48;;;;;;;3.72;1.00;;;7.10;44.00;;;;;;5049057;28;20053;-71
2022/04/02 12:49:35;;;;;;;4.97;0.73;;;7.30;43.30;;;;;;5048368;28;20579;-66
2022/04/02 12:52:16;;;;;;;5.50;0.80;;;7.60;42.50;;;;;;5046627;28;20286;-72
2022/04/02 12:54:50;;;;;;;5.95;1.63;;;7.60;42.80;;;;;;5046390;28;20045;-70
2022/04/02 12:57:16;;;;;;;4.15;0.90;;;7.40;43.70;;;;;;5047702;28;20164;-72
2022/04/02 12:59:53;;;;;;;2.92;0.65;;;7.30;44.30;;;;;;5046784;28;20052;-72
2022/04/02 13:02:21;;;;;;;4.05;0.70;;;7.30;44.50;;;;;;5048789;28;20048;-69
2022/04/02 13:04:54;;;;;;;2.75;0.50;;;7.40;44.40;;;;;;5046907;28;20041;-69
2022/04/02 13:07:21;;;;;;;3.70;0.75;;;7.50;43.00;;;;;;5038762;28;20138;-69
2022/04/02 13:09:54;;;;;;;5.85;0.98;;;7.70;43.70;;;;;;5030816;28;20064;-70
2022/04/02 13:12:23;;;;;;;4.90;1.00;;;7.50;43.00;;;;;;5032620;28;20099;-69
2022/04/02 13:15:08;;;;;;;8.70;0.98;;;7.30;43.00;;;;;;5029234;28;20046;-70
2022/04/02 13:20:28;;;;;;;5.90;0.80;;;7.10;43.80;;;;;;5040020;28;20041;-70